Aeroporto :
LOGIN :

Iscrizione | Disclaimer

   EN    FR    IT 

 










Sommario :    VFR   VFR Marginale   IFR   IFR Intensivo   IFR Molto Intensivo
Visibilità : 
Base nubi : 
>= 8 km
>= 3000ft
5 / 8 km
1000 / 3000 ft
1500m / 5 km
500 / 1000 ft
800 / 1500m
200 / 500 ft
< 800m
< 200 ft
Simboli :   Temporali  Nebbia  Neve Forte  Precipitazioni Forti  Vento > 20 kt
SIGMETs :   Varie  Temporali  Ghiacco  Turbolenza  Onda orograficha  Ceneri Vulcaniche






- Altitudine del aeroporto : 1046 ft
- Codice IATA : NUE


EDDN - Nuremberg

ULTIMO METAR :
  • 180250Z 28006KT 9999 FEW018 SCT048 06/03 Q1023

METARs OBSOLETI :
  • 180220Z 29006KT 9999 -RA BKN035 BKN048 06/04 Q1022
  • 180150Z 28008KT 9999 BKN035 BKN048 06/03 Q1022
  • 180120Z 26007KT 9999 SCT035 BKN048 06/04 Q1022
  • 180050Z 26006KT 9999 SCT035 BKN048 06/04 Q1021
  • 180020Z 26005KT 9999 FEW018 BKN048 06/04 Q1021
  • 172350Z 24005KT 9999 FEW018 BKN048 07/04 Q1021

TAF TAF EDDN
Valido dal 18 a 00 ore il 19 a 00 ore UTC


172300Z 1800/1824 19003KT 9999 SCT010 BKN020
BECMG 1800/1802 26006KT
PROB30
TEMPO 1802/1810 BKN009
PROB40
TEMPO 1810/1820 27013KT 4000 SHRAGS BKN010TCU
PROB30
TEMPO 1820/1824 2000 -SHSN BKN009TCU



MetMap, La meteo Aeronautica in un colpo d'occhio ! - Copyright ORBIFLY Dicembre 2007 - Disclaimer

ORBIFLY MET'MAP TEAM :

Programmazione e sviluppo : Alexandra Zaïnal
Concezione : Baudouin d'Aumeries
Aiuto per la programmazione : Marc-Olivier Méhu
Supporto tecnico e logistico : Manuel Goepfert
Aiuto per la traduzione : Arnaldo La Scala

Contatto : metmap@orbifly.com




FONTI E CREDITI :

   NOAA